Time;durP1;ratioP1;P1;durP2;ratioP2;P2;SDS_P1;SDS_P2;PMS_P1;PMS_P2;Temp;Humidity;BMP_temperature;BMP_pressure;BME280_temperature;BME280_humidity;BME280_pressure;Samples;Min_cycle;Max_cycle;Signal;HPM_P1;HPM_P2
2023/01/04 00:01:42;;;;;;;29.60;19.98;;;2.30;99.90;;;;;;5068685;28;20412;-83
2023/01/04 00:04:13;;;;;;;23.75;18.67;;;2.30;99.90;;;;;;5088926;28;20855;-83
2023/01/04 00:06:39;;;;;;;24.70;18.70;;;2.50;99.90;;;;;;5070225;28;20387;-81
2023/01/04 00:09:05;;;;;;;25.80;18.17;;;2.60;99.90;;;;;;5068320;28;20399;-81
2023/01/04 00:11:31;;;;;;;23.17;17.30;;;2.60;99.90;;;;;;5069471;28;21426;-81
2023/01/04 00:13:58;;;;;;;24.10;16.73;;;2.80;99.90;;;;;;5069586;28;20400;-81
2023/01/04 00:16:27;;;;;;;22.93;17.00;;;2.90;99.90;;;;;;5084320;28;20391;-81
2023/01/04 00:18:54;;;;;;;25.87;17.60;;;3.00;99.90;;;;;;5066871;28;20429;-82
2023/01/04 00:21:25;;;;;;;24.95;18.30;;;2.90;99.90;;;;;;5088320;28;20380;-82
2023/01/04 00:23:53;;;;;;;25.42;17.77;;;2.70;99.90;;;;;;5087407;28;20395;-82
2023/01/04 00:26:23;;;;;;;25.05;17.08;;;2.90;99.90;;;;;;5070103;28;20447;-81
2023/01/04 00:29:00;;;;;;;22.45;17.67;;;2.80;99.90;;;;;;5087241;28;20388;-81
2023/01/04 00:31:27;;;;;;;25.08;17.10;;;2.90;99.90;;;;;;5085587;28;20387;-82
2023/01/04 00:33:54;;;;;;;22.20;16.30;;;2.90;99.90;;;;;;5069742;28;20950;-81
2023/01/04 00:36:20;;;;;;;23.48;17.33;;;3.00;99.90;;;;;;5085652;28;21135;-80
2023/01/04 00:38:46;;;;;;;22.77;16.70;;;2.90;99.90;;;;;;5082520;28;20486;-81
2023/01/04 00:41:13;;;;;;;20.37;15.27;;;3.00;99.90;;;;;;5086431;28;21318;-80
2023/01/04 00:43:39;;;;;;;24.20;17.30;;;3.10;99.90;;;;;;5085807;28;20373;-81
2023/01/04 00:46:10;;;;;;;27.10;17.08;;;3.20;99.90;;;;;;5086667;28;20406;-81
2023/01/04 00:48:36;;;;;;;22.88;16.48;;;3.10;99.90;;;;;;5086679;28;20375;-81
2023/01/04 00:51:01;;;;;;;22.20;16.48;;;3.10;99.90;;;;;;5085800;28;20368;-80
2023/01/04 00:53:27;;;;;;;22.57;15.90;;;3.00;99.90;;;;;;5100653;28;20388;-82
2023/01/04 00:55:58;;;;;;;21.30;16.20;;;3.10;99.90;;;;;;5087267;28;20388;-81
2023/01/04 00:58:24;;;;;;;22.20;16.25;;;3.20;99.90;;;;;;5087984;28;20414;-81
2023/01/04 01:00:49;;;;;;;19.43;14.97;;;3.20;99.90;;;;;;5087056;28;20526;-82
2023/01/04 01:03:15;;;;;;;20.97;14.97;;;3.20;99.90;;;;;;5087587;28;20972;-80
2023/01/04 01:05:41;;;;;;;19.88;15.50;;;3.40;99.90;;;;;;5098727;28;20383;-81
2023/01/04 01:08:24;;;;;;;18.33;14.80;;;3.40;99.90;;;;;;5075728;28;20372;-82
2023/01/04 01:10:52;;;;;;;19.10;14.47;;;3.60;99.90;;;;;;5093802;28;20372;-82
2023/01/04 01:13:18;;;;;;;18.88;15.00;;;3.60;99.90;;;;;;5090596;28;20740;-82
2023/01/04 01:15:44;;;;;;;18.60;14.30;;;3.70;99.90;;;;;;5085217;28;20707;-82
2023/01/04 01:18:10;;;;;;;16.30;13.23;;;3.70;99.90;;;;;;5094894;28;20430;-82
2023/01/04 01:20:41;;;;;;;17.93;13.90;;;3.70;99.90;;;;;;5101493;28;20394;-83
2023/01/04 01:23:06;;;;;;;16.17;13.60;;;3.70;99.90;;;;;;5093739;28;20737;-81
2023/01/04 01:25:33;;;;;;;20.07;14.07;;;3.70;99.90;;;;;;5103094;28;20399;-81
2023/01/04 01:27:58;;;;;;;16.42;12.93;;;3.60;99.90;;;;;;5099313;28;20388;-82
2023/01/04 01:30:24;;;;;;;17.30;13.60;;;3.80;99.90;;;;;;5090125;28;20380;-80
2023/01/04 01:32:49;;;;;;;16.47;13.83;;;3.80;99.90;;;;;;5105289;28;20381;-82
2023/01/04 01:35:15;;;;;;;15.93;12.85;;;3.80;99.90;;;;;;5094715;28;20387;-81
2023/01/04 01:37:41;;;;;;;15.50;12.55;;;4.00;99.90;;;;;;5104708;28;20392;-82
2023/01/04 01:40:07;;;;;;;14.70;12.73;;;3.90;99.90;;;;;;5085099;28;20446;-83
2023/01/04 01:42:33;;;;;;;15.73;12.55;;;4.00;99.90;;;;;;5088123;28;20384;-81
2023/01/04 01:45:03;;;;;;;14.60;12.30;;;4.10;99.90;;;;;;5102669;28;20388;-82
2023/01/04 01:47:43;;;;;;;16.10;12.77;;;4.00;99.90;;;;;;5088039;28;20396;-81
2023/01/04 01:50:21;;;;;;;13.75;11.75;;;3.90;99.90;;;;;;5069936;28;20738;-81
2023/01/04 01:52:48;;;;;;;15.55;12.23;;;4.00;99.90;;;;;;5068594;28;20374;-81
2023/01/04 01:55:16;;;;;;;17.42;12.98;;;3.90;99.90;;;;;;5068723;28;20374;-81
2023/01/04 01:57:42;;;;;;;15.52;12.30;;;4.00;99.90;;;;;;5069756;28;20374;-80
2023/01/04 02:00:11;;;;;;;17.50;13.25;;;3.70;99.90;;;;;;5069904;28;20445;-81
2023/01/04 02:02:46;;;;;;;15.85;12.82;;;3.60;99.90;;;;;;5110256;28;20379;-80
2023/01/04 02:05:12;;;;;;;18.85;13.95;;;3.60;99.90;;;;;;5110801;28;20366;-79
2023/01/04 02:07:38;;;;;;;17.27;13.82;;;3.50;99.90;;;;;;5096558;28;20412;-80
2023/01/04 02:10:04;;;;;;;18.40;13.95;;;3.30;99.90;;;;;;5072216;28;20400;-82
2023/01/04 02:12:30;;;;;;;19.00;13.68;;;3.40;99.90;;;;;;5090747;28;20368;-82
2023/01/04 02:14:56;;;;;;;16.23;13.57;;;3.30;99.90;;;;;;5310485;23;20797;-81
2023/01/04 02:17:50;;;;;;;15.10;13.30;;;3.30;99.90;;;;;;5066023;28;20371;-81
2023/01/04 02:20:42;;;;;;;16.93;13.20;;;3.40;99.90;;;;;;5069894;28;20390;-80
2023/01/04 02:23:45;;;;;;;18.40;13.23;;;3.50;99.90;;;;;;5070881;28;20411;-81
2023/01/04 02:26:31;;;;;;;17.50;13.48;;;3.40;99.90;;;;;;4981690;28;20402;-80
2023/01/04 02:29:16;;;;;;;16.35;13.20;;;3.30;99.90;;;;;;5070673;28;20856;-81
2023/01/04 02:31:56;;;;;;;17.10;13.75;;;3.40;99.90;;;;;;5070465;28;20382;-81
2023/01/04 02:34:31;;;;;;;15.80;12.93;;;3.40;99.90;;;;;;5070248;28;20373;-80
2023/01/04 02:37:11;;;;;;;18.85;13.18;;;3.40;99.90;;;;;;5070535;28;20374;-80
2023/01/04 02:39:48;;;;;;;17.52;13.45;;;3.50;99.90;;;;;;5055705;28;20915;-79
2023/01/04 02:45:31;;;;;;;16.95;12.55;;;3.70;99.90;;;;;;5063202;28;20891;-80
2023/01/04 02:50:55;;;;;;;16.40;13.75;;;3.70;99.90;;;;;;5064408;28;20456;-80
2023/01/04 02:53:34;;;;;;;14.23;12.68;;;3.70;99.90;;;;;;5067700;28;20496;-79
2023/01/04 02:56:34;;;;;;;16.10;12.80;;;3.70;99.90;;;;;;5067564;28;20512;-80
2023/01/04 02:59:39;;;;;;;17.15;13.20;;;3.70;99.90;;;;;;5068593;28;21448;-81
2023/01/04 03:08:51;;;;;;;17.13;12.27;;;3.70;99.90;;;;;;5064980;28;20493;-78
2023/01/04 03:14:06;;;;;;;15.37;11.97;;;3.90;99.90;;;;;;5066287;28;20425;-80
2023/01/04 03:16:36;;;;;;;13.97;11.77;;;3.80;99.90;;;;;;5069970;28;20374;-81
2023/01/04 03:19:08;;;;;;;13.77;12.25;;;3.70;99.90;;;;;;5058847;28;20925;-80
2023/01/04 03:21:36;;;;;;;15.75;11.98;;;3.80;99.90;;;;;;5066697;28;20416;-80
2023/01/04 03:35:21;;;;;;;15.57;12.32;;;3.70;99.90;;;;;;5067836;28;20417;-82
2023/01/04 03:35:48;;;;;;;16.95;12.80;;;3.50;99.90;;;;;;5068841;28;20428;-81
2023/01/04 03:50:08;;;;;;;15.98;11.80;;;3.60;99.90;;;;;;5066978;28;20419;-81
2023/01/04 03:52:35;;;;;;;12.30;11.02;;;3.50;99.90;;;;;;5068429;28;20381;-81
2023/01/04 03:55:04;;;;;;;13.95;11.70;;;3.60;99.90;;;;;;5067818;28;20757;-82
2023/01/04 03:57:31;;;;;;;14.17;11.67;;;3.60;99.90;;;;;;5068331;28;20394;-80
2023/01/04 04:00:03;;;;;;;13.20;11.03;;;3.60;99.90;;;;;;5068028;28;20510;-80
2023/01/04 04:02:29;;;;;;;14.18;12.18;;;3.50;99.90;;;;;;5067962;28;20416;-82
2023/01/04 04:10:42;;;;;;;13.20;11.70;;;3.50;99.90;;;;;;5068010;28;20404;-81
2023/01/04 04:13:07;;;;;;;14.63;11.88;;;3.50;99.90;;;;;;5067745;28;20492;-82
2023/01/04 04:15:35;;;;;;;13.45;11.95;;;3.50;99.90;;;;;;5067598;28;20508;-81
2023/01/04 04:18:01;;;;;;;14.88;11.25;;;3.50;99.90;;;;;;5063153;28;20398;-82
2023/01/04 04:20:27;;;;;;;13.47;11.10;;;3.70;99.90;;;;;;5068494;28;20865;-82
2023/01/04 04:22:52;;;;;;;15.23;11.40;;;3.60;99.90;;;;;;5067907;28;21153;-81
2023/01/04 04:25:18;;;;;;;15.43;11.20;;;3.70;99.90;;;;;;5065779;28;20421;-81
2023/01/04 04:27:43;;;;;;;14.00;11.30;;;3.70;99.90;;;;;;5067983;28;20954;-81
2023/01/04 04:30:09;;;;;;;12.37;10.60;;;3.80;99.90;;;;;;5068153;28;20957;-80
2023/01/04 04:32:35;;;;;;;13.20;10.30;;;3.80;99.90;;;;;;5067787;28;20421;-80
2023/01/04 04:35:01;;;;;;;12.63;10.20;;;3.90;99.90;;;;;;5067058;28;20398;-80
2023/01/04 04:37:29;;;;;;;11.90;9.93;;;3.90;99.90;;;;;;5068181;28;20409;-82
2023/01/04 04:39:54;;;;;;;12.52;10.23;;;4.00;99.90;;;;;;5058224;28;20870;-81
2023/01/04 04:42:20;;;;;;;13.30;9.90;;;4.10;99.90;;;;;;5068738;28;20392;-82
2023/01/04 04:44:46;;;;;;;12.73;10.10;;;4.10;99.90;;;;;;5072603;28;20378;-79
2023/01/04 04:47:11;;;;;;;13.47;10.20;;;4.20;99.90;;;;;;5072522;28;20377;-80
2023/01/04 04:49:37;;;;;;;13.33;9.83;;;4.20;99.90;;;;;;5071743;28;20378;-80
2023/01/04 04:52:02;;;;;;;13.52;9.40;;;4.20;99.90;;;;;;5072339;28;20877;-81
2023/01/04 04:54:28;;;;;;;13.02;9.77;;;4.30;99.90;;;;;;5072422;28;20416;-81
2023/01/04 04:56:54;;;;;;;11.67;9.40;;;4.30;99.90;;;;;;5073547;28;20394;-80
2023/01/04 04:59:19;;;;;;;11.33;9.47;;;4.30;99.90;;;;;;5071674;28;21198;-81
2023/01/04 05:01:45;;;;;;;10.67;9.17;;;4.30;99.90;;;;;;5072141;28;20856;-81
2023/01/04 05:04:15;;;;;;;12.93;9.18;;;4.40;99.90;;;;;;5072374;28;20428;-82
2023/01/04 05:06:42;;;;;;;13.57;9.45;;;4.40;99.90;;;;;;5072569;28;20389;-81
2023/01/04 05:09:09;;;;;;;11.27;9.63;;;4.30;99.90;;;;;;5071456;28;20374;-79
2023/01/04 05:14:19;;;;;;;10.15;8.55;;;4.40;99.90;;;;;;5071776;28;20483;-81
2023/01/04 05:16:45;;;;;;;11.27;8.97;;;4.40;99.90;;;;;;5071431;28;20425;-80
2023/01/04 05:19:10;;;;;;;11.60;9.00;;;4.40;99.90;;;;;;5071327;28;20760;-80
2023/01/04 05:21:36;;;;;;;11.27;9.07;;;4.30;99.90;;;;;;5071977;28;20374;-82
2023/01/04 05:24:02;;;;;;;9.20;8.20;;;4.50;99.90;;;;;;5071865;28;20381;-82
2023/01/04 05:26:27;;;;;;;10.17;8.77;;;4.50;99.90;;;;;;5071207;28;20374;-82
2023/01/04 05:28:53;;;;;;;12.57;9.00;;;4.60;99.90;;;;;;5071598;28;20382;-79
2023/01/04 05:31:19;;;;;;;10.13;8.20;;;4.50;99.90;;;;;;5070759;28;20712;-81
2023/01/04 05:33:44;;;;;;;10.52;8.07;;;4.60;99.90;;;;;;5065349;28;20372;-81
2023/01/04 05:36:10;;;;;;;13.00;8.52;;;4.70;99.90;;;;;;5051186;28;20392;-81
2023/01/04 05:38:35;;;;;;;10.30;8.03;;;4.70;99.90;;;;;;5050933;28;20495;-82
2023/01/04 05:41:01;;;;;;;9.23;7.23;;;4.70;99.90;;;;;;5057531;28;20547;-83
2023/01/04 05:43:27;;;;;;;8.27;7.15;;;4.70;99.90;;;;;;5066983;28;20388;-82
2023/01/04 05:45:54;;;;;;;10.98;7.40;;;4.80;99.90;;;;;;5068247;28;20904;-82
2023/01/04 05:48:22;;;;;;;8.37;6.80;;;4.80;99.90;;;;;;5069838;28;20486;-81
2023/01/04 05:50:48;;;;;;;9.55;6.78;;;4.70;99.90;;;;;;5068900;28;20876;-81
2023/01/04 05:53:18;;;;;;;9.35;6.68;;;4.80;99.90;;;;;;5062047;28;20438;-80
2023/01/04 05:55:46;;;;;;;9.00;7.10;;;4.80;99.90;;;;;;5067245;28;20737;-82
2023/01/04 05:58:11;;;;;;;10.27;6.80;;;4.90;99.90;;;;;;5070913;28;20370;-81
2023/01/04 06:00:37;;;;;;;8.20;6.50;;;4.90;99.90;;;;;;5070406;28;20374;-80
2023/01/04 06:03:03;;;;;;;7.72;6.40;;;4.90;99.90;;;;;;5070989;28;20766;-81
2023/01/04 06:05:28;;;;;;;8.20;6.90;;;4.90;99.90;;;;;;5071195;28;20724;-79
2023/01/04 06:07:54;;;;;;;9.30;6.53;;;5.10;99.90;;;;;;5071159;28;20849;-80
2023/01/04 06:10:20;;;;;;;7.57;5.93;;;5.00;99.90;;;;;;5070919;28;20378;-82
2023/01/04 06:12:47;;;;;;;9.27;6.10;;;5.00;99.90;;;;;;5071003;28;20381;-82
2023/01/04 06:15:13;;;;;;;7.40;6.05;;;5.10;99.90;;;;;;5070802;28;20472;-82
2023/01/04 06:17:39;;;;;;;7.90;5.95;;;5.10;99.90;;;;;;5069671;28;20618;-81
2023/01/04 06:20:08;;;;;;;12.10;5.80;;;5.20;99.90;;;;;;5070520;28;20406;-81
2023/01/04 06:22:34;;;;;;;9.77;5.72;;;5.20;99.90;;;;;;5070592;28;20432;-80
2023/01/04 06:24:59;;;;;;;8.37;5.13;;;5.30;99.90;;;;;;5070805;28;20382;-80
2023/01/04 06:27:25;;;;;;;7.95;5.55;;;5.40;99.90;;;;;;5070734;28;20460;-80
2023/01/04 06:29:51;;;;;;;9.77;5.40;;;5.40;99.90;;;;;;5068833;28;20453;-80
2023/01/04 06:32:16;;;;;;;8.98;5.35;;;5.50;99.90;;;;;;5070461;28;20409;-82
2023/01/04 06:34:42;;;;;;;6.40;4.93;;;5.50;99.90;;;;;;5070413;28;20380;-81
2023/01/04 06:37:08;;;;;;;8.60;4.97;;;5.60;99.90;;;;;;5070706;28;20459;-81
2023/01/04 06:39:35;;;;;;;7.63;4.80;;;5.60;99.90;;;;;;5069677;28;20447;-82
2023/01/04 06:42:01;;;;;;;8.27;4.80;;;5.70;99.90;;;;;;5070539;28;20406;-80
2023/01/04 06:44:27;;;;;;;8.75;4.18;;;5.80;99.90;;;;;;5070680;28;20460;-81
2023/01/04 06:46:52;;;;;;;6.30;4.40;;;5.90;99.90;;;;;;5069734;28;20434;-80
2023/01/04 06:49:18;;;;;;;6.47;4.27;;;5.90;99.90;;;;;;5069497;28;20386;-82
2023/01/04 06:51:44;;;;;;;5.65;4.20;;;6.00;99.90;;;;;;5068945;28;20385;-80
2023/01/04 06:54:13;;;;;;;7.20;4.45;;;5.90;99.90;;;;;;5069033;28;20497;-81
2023/01/04 06:56:39;;;;;;;6.47;4.38;;;6.00;99.90;;;;;;5054319;28;20403;-82
2023/01/04 06:59:08;;;;;;;7.57;4.03;;;6.00;99.90;;;;;;5065462;28;20764;-82
2023/01/04 07:01:34;;;;;;;7.00;4.35;;;6.00;99.90;;;;;;5069539;28;20370;-80
2023/01/04 07:03:59;;;;;;;6.20;4.30;;;6.00;99.90;;;;;;5069851;28;21329;-80
2023/01/04 07:06:25;;;;;;;6.50;3.97;;;6.00;99.90;;;;;;5070204;28;20410;-82
2023/01/04 07:08:51;;;;;;;6.40;3.90;;;6.10;99.90;;;;;;5065229;28;20398;-82
2023/01/04 07:11:16;;;;;;;7.90;3.90;;;6.10;99.90;;;;;;5064606;28;20386;-83
2023/01/04 07:13:42;;;;;;;6.78;3.70;;;6.10;99.90;;;;;;5066941;28;20855;-82
2023/01/04 07:16:07;;;;;;;7.47;4.30;;;6.00;99.90;;;;;;5058942;28;20390;-82
2023/01/04 07:18:33;;;;;;;4.93;3.53;;;6.00;99.90;;;;;;5069394;28;20398;-80
2023/01/04 07:20:59;;;;;;;6.88;3.70;;;6.00;99.90;;;;;;5068562;28;20417;-79
2023/01/04 07:23:24;;;;;;;7.65;3.58;;;6.10;99.90;;;;;;5069304;28;20431;-81
2023/01/04 07:25:50;;;;;;;6.70;3.50;;;6.20;99.90;;;;;;5069260;28;20366;-81
2023/01/04 07:29:13;;;;;;;6.28;3.33;;;6.20;99.90;;;;;;5069562;28;20768;-81
2023/01/04 07:31:06;;;;;;;6.82;3.83;;;6.20;99.90;;;;;;5068535;28;20452;-83
2023/01/04 07:33:32;;;;;;;6.63;3.50;;;6.20;99.90;;;;;;5069681;28;20868;-82
2023/01/04 07:36:02;;;;;;;9.40;3.88;;;6.20;99.90;;;;;;5069431;28;20379;-78
2023/01/04 07:38:28;;;;;;;8.25;3.63;;;6.20;99.90;;;;;;5069324;28;20405;-78
2023/01/04 07:40:53;;;;;;;8.20;3.90;;;6.20;99.90;;;;;;5068666;28;20968;-81
2023/01/04 07:43:19;;;;;;;8.43;3.85;;;6.20;99.90;;;;;;5069503;28;20753;-81
2023/01/04 07:45:45;;;;;;;5.32;3.40;;;6.20;99.90;;;;;;5069467;28;20729;-80
2023/01/04 07:48:10;;;;;;;5.00;3.20;;;6.20;99.90;;;;;;5069855;28;20745;-79
2023/01/04 07:50:36;;;;;;;6.55;3.40;;;6.20;99.90;;;;;;5068678;28;20423;-81
2023/01/04 07:53:02;;;;;;;7.53;3.35;;;6.20;99.90;;;;;;5069557;28;20432;-81
2023/01/04 07:55:27;;;;;;;6.73;3.00;;;6.20;99.90;;;;;;5069319;28;20820;-80
2023/01/04 07:57:53;;;;;;;4.87;2.80;;;6.20;99.90;;;;;;5068891;28;20471;-79
2023/01/04 08:00:19;;;;;;;7.57;3.03;;;6.30;99.90;;;;;;5068652;28;20977;-80
2023/01/04 08:02:47;;;;;;;6.80;2.97;;;6.30;99.90;;;;;;5065226;28;20398;-81
2023/01/04 08:05:13;;;;;;;6.17;3.00;;;6.30;99.90;;;;;;5064106;28;20475;-80
2023/01/04 08:07:38;;;;;;;7.17;3.00;;;6.40;99.90;;;;;;5064365;28;20397;-81
2023/01/04 08:10:05;;;;;;;4.63;2.83;;;6.30;99.90;;;;;;5066569;28;20394;-82
2023/01/04 08:12:30;;;;;;;6.63;3.03;;;6.40;99.90;;;;;;5061773;28;20923;-83
2023/01/04 08:14:56;;;;;;;5.72;2.88;;;6.30;99.90;;;;;;5058975;28;20406;-85
2023/01/04 08:17:22;;;;;;;7.75;3.30;;;6.30;99.90;;;;;;5069706;28;20375;-83
2023/01/04 08:19:48;;;;;;;5.40;3.00;;;6.30;99.90;;;;;;5067233;28;20409;-82
2023/01/04 08:22:13;;;;;;;7.60;3.42;;;6.40;99.90;;;;;;5069159;28;20386;-84
2023/01/04 08:24:39;;;;;;;5.27;2.90;;;6.50;99.90;;;;;;5067433;28;20386;-84
2023/01/04 08:27:06;;;;;;;5.25;3.00;;;6.50;99.90;;;;;;5063291;28;20393;-83
2023/01/04 08:29:32;;;;;;;6.60;3.30;;;6.50;99.90;;;;;;5056301;28;20370;-84
2023/01/04 08:31:58;;;;;;;6.03;3.13;;;6.40;99.90;;;;;;5061441;28;20378;-85
2023/01/04 08:34:23;;;;;;;4.70;3.13;;;6.50;99.90;;;;;;5068461;28;20794;-83
2023/01/04 08:36:52;;;;;;;6.10;3.20;;;6.40;99.90;;;;;;5069537;28;20436;-82
2023/01/04 08:39:18;;;;;;;5.78;3.13;;;6.50;99.90;;;;;;5069022;28;20892;-83
2023/01/04 08:41:50;;;;;;;8.05;3.88;;;6.60;99.90;;;;;;5069104;28;20406;-88
2023/01/04 08:44:23;;;;;;;6.82;3.40;;;6.50;99.90;;;;;;5069081;28;20385;-84
2023/01/04 08:46:50;;;;;;;5.82;3.20;;;6.50;99.90;;;;;;5070373;28;20446;-85
2023/01/04 08:49:16;;;;;;;7.22;3.55;;;6.50;99.90;;;;;;5068461;28;20370;-83
2023/01/04 08:51:43;;;;;;;6.37;3.60;;;6.60;99.90;;;;;;5068917;28;20385;-85
2023/01/04 08:54:09;;;;;;;7.97;3.72;;;6.60;99.90;;;;;;5070236;28;20370;-83
2023/01/04 08:56:35;;;;;;;6.13;3.72;;;6.70;99.90;;;;;;5069115;28;20386;-85
2023/01/04 08:59:00;;;;;;;7.20;4.00;;;6.70;99.90;;;;;;5068723;28;20753;-86
2023/01/04 09:01:27;;;;;;;5.07;4.40;;;6.70;99.90;;;;;;5069726;28;20408;-83
2023/01/04 09:03:54;;;;;;;7.45;4.68;;;6.70;99.90;;;;;;5069460;28;20377;-84
2023/01/04 09:06:21;;;;;;;5.65;4.15;;;6.60;99.90;;;;;;5069036;28;20380;-83
2023/01/04 09:08:46;;;;;;;6.07;4.00;;;6.70;99.90;;;;;;5067565;28;20434;-86
2023/01/04 09:11:18;;;;;;;6.22;4.30;;;6.70;99.90;;;;;;5067617;28;20465;-83
2023/01/04 09:13:44;;;;;;;4.80;3.83;;;6.80;99.90;;;;;;5068018;28;20447;-82
2023/01/04 09:16:14;;;;;;;6.80;3.85;;;6.90;99.90;;;;;;5067836;28;20385;-83
2023/01/04 09:18:40;;;;;;;7.13;3.80;;;6.90;99.90;;;;;;5068061;28;20394;-80
2023/01/04 09:21:07;;;;;;;7.18;4.07;;;6.90;99.90;;;;;;5068048;28;20445;-84
2023/01/04 09:23:34;;;;;;;7.60;4.35;;;6.90;99.90;;;;;;5066389;28;20374;-82
2023/01/04 09:26:08;;;;;;;6.07;4.38;;;6.80;99.90;;;;;;5067552;28;20433;-83
2023/01/04 09:28:34;;;;;;;6.00;3.90;;;6.90;99.90;;;;;;5057052;28;20426;-87
2023/01/04 09:31:06;;;;;;;7.95;3.97;;;7.00;99.90;;;;;;5070453;28;20381;-81
2023/01/04 09:33:32;;;;;;;6.95;4.32;;;6.90;99.90;;;;;;5069355;28;20391;-80
2023/01/04 09:36:03;;;;;;;7.05;4.43;;;6.90;99.90;;;;;;5060750;28;20386;-83
2023/01/04 09:38:30;;;;;;;8.43;4.43;;;7.00;99.90;;;;;;5070322;28;20501;-82
2023/01/04 09:41:13;;;;;;;6.20;4.18;;;7.00;99.90;;;;;;5066156;28;20471;-84
2023/01/04 09:43:50;;;;;;;8.93;4.63;;;7.00;99.90;;;;;;5072534;28;20374;-81
2023/01/04 09:46:33;;;;;;;5.32;4.10;;;7.00;99.90;;;;;;5071651;28;20428;-80
2023/01/04 09:49:18;;;;;;;5.13;4.10;;;7.10;99.90;;;;;;5078423;28;20385;-83
2023/01/04 09:52:09;;;;;;;7.72;4.50;;;7.10;99.90;;;;;;5058235;28;20499;-82
2023/01/04 09:54:41;;;;;;;5.20;3.83;;;7.00;99.90;;;;;;5067038;28;20389;-84
2023/01/04 09:57:19;;;;;;;7.38;4.30;;;7.10;99.90;;;;;;5072110;28;20370;-85
2023/01/04 09:59:47;;;;;;;5.43;3.75;;;7.10;99.90;;;;;;5053038;28;20913;-81
2023/01/04 10:02:20;;;;;;;6.30;4.22;;;7.10;99.90;;;;;;5048977;28;20395;-84
2023/01/04 10:04:48;;;;;;;5.80;4.30;;;7.10;99.90;;;;;;5050279;28;20387;-82
2023/01/04 10:07:31;;;;;;;5.00;4.00;;;7.20;99.90;;;;;;5051162;28;20469;-83
2023/01/04 10:09:57;;;;;;;6.20;4.18;;;7.20;99.90;;;;;;5049645;28;20380;-83
2023/01/04 10:12:41;;;;;;;8.32;4.70;;;7.30;99.90;;;;;;5048614;28;20395;-84
2023/01/04 10:15:30;;;;;;;6.78;4.32;;;7.20;99.90;;;;;;5048198;28;20388;-83
2023/01/04 10:18:37;;;;;;;5.97;4.50;;;7.30;99.90;;;;;;5049729;28;20897;-83
2023/01/04 10:21:11;;;;;;;5.28;4.07;;;7.30;99.90;;;;;;5049398;28;20445;-82
2023/01/04 10:23:50;;;;;;;6.10;4.28;;;7.30;99.90;;;;;;5049383;28;20379;-81
2023/01/04 10:26:38;;;;;;;7.13;4.03;;;7.40;99.90;;;;;;5048506;28;20387;-83
2023/01/04 10:29:24;;;;;;;4.65;3.97;;;7.40;99.90;;;;;;5050440;28;20380;-85
2023/01/04 10:32:14;;;;;;;5.03;3.90;;;7.40;99.90;;;;;;5049833;28;20383;-83
2023/01/04 10:34:42;;;;;;;6.55;4.10;;;7.40;99.90;;;;;;5049594;28;20372;-85
2023/01/04 10:37:36;;;;;;;5.78;4.07;;;7.40;99.90;;;;;;5050616;28;20401;-82
2023/01/04 10:40:13;;;;;;;6.05;4.25;;;7.50;99.90;;;;;;5049412;28;20399;-87
2023/01/04 10:43:01;;;;;;;5.57;4.40;;;7.40;99.90;;;;;;5049255;28;20746;-82
2023/01/04 10:46:04;;;;;;;5.78;4.10;;;7.50;99.90;;;;;;5048260;28;20841;-84
2023/01/04 10:48:54;;;;;;;5.50;4.00;;;7.50;99.90;;;;;;5048454;28;20391;-84
2023/01/04 10:51:44;;;;;;;5.35;4.03;;;7.60;99.90;;;;;;5047479;28;20368;-86
2023/01/04 10:55:24;;;;;;;6.50;4.38;;;7.60;99.90;;;;;;5048420;28;20418;-84
2023/01/04 10:58:16;;;;;;;5.07;4.00;;;7.70;99.90;;;;;;4949792;28;20400;-85
2023/01/04 11:00:59;;;;;;;5.07;4.00;;;7.80;99.90;;;;;;4937709;28;20400;-86
2023/01/04 11:03:45;;;;;;;4.47;3.72;;;7.70;99.90;;;;;;4992657;28;20382;-87
2023/01/04 11:06:33;;;;;;;5.15;3.80;;;7.80;99.90;;;;;;5040505;28;20388;-87
2023/01/04 11:09:03;;;;;;;5.30;3.63;;;7.80;99.90;;;;;;5049078;28;20384;-85
2023/01/04 11:11:39;;;;;;;5.80;3.70;;;7.90;99.90;;;;;;5052064;28;20376;-86
2023/01/04 11:14:05;;;;;;;4.90;3.30;;;8.00;99.90;;;;;;5053073;28;20392;-86
2023/01/04 11:16:31;;;;;;;4.10;3.45;;;8.00;99.90;;;;;;5051761;28;20395;-86
2023/01/04 11:18:57;;;;;;;4.68;3.33;;;8.10;99.90;;;;;;5046285;28;20902;-85
2023/01/04 11:21:27;;;;;;;4.53;3.40;;;8.00;99.90;;;;;;5050971;28;20376;-87
2023/01/04 11:23:58;;;;;;;6.05;3.50;;;8.10;99.90;;;;;;5050458;28;20388;-86
2023/01/04 11:26:32;;;;;;;3.90;3.13;;;8.10;99.90;;;;;;5048494;28;20380;-84
2023/01/04 11:29:23;;;;;;;4.45;3.35;;;8.10;99.90;;;;;;5050138;28;20375;-82
2023/01/04 11:32:00;;;;;;;4.32;3.40;;;8.00;99.90;;;;;;5049437;28;20459;-86
2023/01/04 11:34:47;;;;;;;4.57;3.50;;;8.20;99.90;;;;;;5048210;28;20391;-86
2023/01/04 11:37:34;;;;;;;4.00;3.17;;;8.20;99.90;;;;;;5048885;28;20376;-84
2023/01/04 11:40:22;;;;;;;4.95;3.20;;;8.10;99.90;;;;;;5048382;28;20411;-83
2023/01/04 11:43:15;;;;;;;4.43;3.22;;;8.20;99.90;;;;;;5049057;28;20396;-84
2023/01/04 11:45:52;;;;;;;4.55;2.90;;;8.20;99.90;;;;;;5044698;28;20435;-82
2023/01/04 11:48:18;;;;;;;4.63;3.40;;;8.30;99.90;;;;;;5049014;28;20382;-83
2023/01/04 11:50:46;;;;;;;3.60;3.20;;;8.20;99.90;;;;;;5048480;28;20388;-82
2023/01/04 11:53:24;;;;;;;3.53;3.22;;;8.30;99.90;;;;;;5065586;28;20390;-84
2023/01/04 11:55:50;;;;;;;7.15;3.47;;;8.30;99.90;;;;;;5067797;28;20374;-84
2023/01/04 11:58:18;;;;;;;3.75;3.10;;;8.30;99.90;;;;;;5062701;28;20785;-83
2023/01/04 12:00:55;;;;;;;4.73;3.03;;;8.30;99.90;;;;;;5069799;28;20409;-85
2023/01/04 12:03:37;;;;;;;4.13;3.30;;;8.40;99.90;;;;;;5065719;28;20410;-85
2023/01/04 12:06:19;;;;;;;4.90;3.27;;;8.30;99.90;;;;;;5069254;28;20385;-83
2023/01/04 12:08:46;;;;;;;3.92;3.28;;;8.30;99.90;;;;;;5068833;28;20381;-87
2023/01/04 12:11:29;;;;;;;3.38;3.08;;;8.30;99.90;;;;;;5068910;28;20400;-83
2023/01/04 12:13:58;;;;;;;4.13;3.45;;;8.30;99.90;;;;;;5061466;28;20408;-83
2023/01/04 12:16:52;;;;;;;5.55;4.00;;;8.30;99.90;;;;;;5066873;28;20729;-83
2023/01/04 12:19:19;;;;;;;5.37;3.77;;;8.40;99.90;;;;;;5067301;28;20398;-82
2023/01/04 12:21:49;;;;;;;4.93;3.70;;;8.20;99.90;;;;;;5068486;28;20386;-85
2023/01/04 12:24:23;;;;;;;5.38;3.95;;;8.30;99.90;;;;;;5066144;28;20382;-85
2023/01/04 12:26:51;;;;;;;4.73;3.47;;;8.30;99.90;;;;;;5066722;28;20985;-84
2023/01/04 12:29:23;;;;;;;4.45;3.50;;;8.30;99.90;;;;;;5069292;28;20382;-84
2023/01/04 12:32:17;;;;;;;3.78;3.28;;;8.40;99.90;;;;;;5071388;28;20402;-86
2023/01/04 12:34:45;;;;;;;4.32;3.35;;;8.40;99.90;;;;;;5047629;28;20769;-85
2023/01/04 12:37:48;;;;;;;4.25;3.25;;;8.40;99.90;;;;;;5068158;28;20500;-84
2023/01/04 12:40:50;;;;;;;3.88;3.35;;;8.40;99.90;;;;;;5068428;28;20511;-88
2023/01/04 12:43:16;;;;;;;5.43;3.40;;;8.50;99.90;;;;;;5067136;28;20414;-85
2023/01/04 12:45:43;;;;;;;4.20;3.60;;;8.50;99.90;;;;;;5068592;28;20370;-83
2023/01/04 12:51:23;;;;;;;4.35;3.95;;;8.50;99.90;;;;;;5069164;28;20427;-88
2023/01/04 12:53:49;;;;;;;4.95;4.28;;;8.40;99.90;;;;;;5069568;28;20465;-86
2023/01/04 12:56:15;;;;;;;6.13;4.00;;;8.40;99.90;;;;;;5070599;28;20379;-87
2023/01/04 12:59:01;;;;;;;7.03;4.35;;;8.40;99.90;;;;;;5067499;28;20499;-85
2023/01/04 13:01:27;;;;;;;4.75;4.10;;;8.30;99.90;;;;;;5066460;28;20394;-86
2023/01/04 13:03:57;;;;;;;5.18;4.10;;;8.40;99.90;;;;;;5069486;28;20443;-86
2023/01/04 13:06:25;;;;;;;4.43;3.90;;;8.40;99.90;;;;;;5067693;28;20378;-86
2023/01/04 13:08:52;;;;;;;5.30;4.70;;;8.40;99.90;;;;;;5070084;28;20412;-84
2023/01/04 13:11:49;;;;;;;4.18;3.78;;;8.40;99.90;;;;;;5069266;28;20787;-86
2023/01/04 13:14:30;;;;;;;4.72;3.70;;;8.50;99.90;;;;;;5070261;28;20948;-83
2023/01/04 13:17:17;;;;;;;4.97;4.07;;;8.50;99.90;;;;;;5069193;28;20385;-84
2023/01/04 13:19:43;;;;;;;4.35;3.95;;;8.50;99.90;;;;;;5056914;28;20406;-85
2023/01/04 13:22:22;;;;;;;3.92;3.45;;;8.60;99.90;;;;;;5071554;28;20890;-84
2023/01/04 13:24:49;;;;;;;4.00;3.60;;;8.60;99.90;;;;;;5069558;28;20405;-86
2023/01/04 13:27:18;;;;;;;4.15;3.60;;;8.60;99.90;;;;;;5070897;28;20386;-82
2023/01/04 13:29:45;;;;;;;5.97;3.58;;;8.60;99.90;;;;;;5070721;28;20424;-84
2023/01/04 13:32:27;;;;;;;3.90;3.40;;;8.60;99.90;;;;;;5071309;28;20431;-84
2023/01/04 13:35:21;;;;;;;3.85;3.45;;;8.70;99.90;;;;;;5064574;28;21732;-85
2023/01/04 13:37:49;;;;;;;3.90;3.50;;;8.70;99.90;;;;;;5050333;28;20479;-85
2023/01/04 13:40:15;;;;;;;3.92;3.63;;;8.60;99.90;;;;;;5066445;28;20404;-84
2023/01/04 13:43:08;;;;;;;3.60;3.30;;;8.60;99.90;;;;;;5070246;28;20379;-82
2023/01/04 13:46:13;;;;;;;5.28;3.53;;;8.60;99.90;;;;;;5019561;28;20389;-83
2023/01/04 13:48:42;;;;;;;3.50;3.20;;;8.60;99.90;;;;;;5069433;28;20861;-84
2023/01/04 13:51:21;;;;;;;3.85;3.47;;;8.60;99.90;;;;;;5070249;28;20378;-86
2023/01/04 13:53:55;;;;;;;3.90;3.47;;;8.60;99.90;;;;;;5071540;28;20370;-83
2023/01/04 13:56:24;;;;;;;3.95;3.50;;;8.70;99.90;;;;;;5069878;28;20386;-82
2023/01/04 13:58:50;;;;;;;4.93;3.67;;;8.70;99.90;;;;;;5070432;28;20418;-82
2023/01/04 14:01:42;;;;;;;4.68;3.28;;;8.70;99.90;;;;;;5069489;28;20371;-84